createdAt,value
2022-09-26T00:00:21.878Z,12.44
2022-09-26T00:01:21.935Z,12.44
2022-09-26T00:02:21.879Z,12.44
2022-09-26T00:03:21.837Z,12.40
2022-09-26T00:04:23.470Z,12.40
2022-09-26T00:05:21.803Z,12.38
2022-09-26T00:06:21.815Z,12.38
2022-09-26T00:07:21.788Z,12.37
2022-09-26T00:08:21.763Z,12.38
2022-09-26T00:09:21.754Z,12.36
2022-09-26T00:10:21.738Z,12.36
2022-09-26T00:11:21.726Z,12.38
2022-09-26T00:12:21.736Z,12.38
2022-09-26T00:13:21.694Z,12.34
2022-09-26T00:14:21.684Z,12.34
2022-09-26T00:15:21.677Z,12.34
2022-09-26T00:16:21.682Z,12.31
2022-09-26T00:17:21.645Z,12.33
2022-09-26T00:18:21.638Z,12.33
2022-09-26T00:19:21.624Z,12.37
2022-09-26T00:20:21.618Z,12.37
2022-09-26T00:21:21.592Z,12.33
2022-09-26T00:22:21.633Z,12.31
2022-09-26T00:23:21.564Z,12.29
2022-09-26T00:24:21.567Z,12.26
2022-09-26T00:25:21.537Z,12.29
2022-09-26T00:26:21.549Z,12.29
2022-09-26T00:27:21.520Z,12.26
2022-09-26T00:28:21.512Z,12.30
2022-09-26T00:29:21.498Z,12.29
2022-09-26T00:30:21.580Z,12.25
2022-09-26T00:31:21.598Z,12.25
2022-09-26T00:32:21.450Z,12.23
2022-09-26T00:33:21.434Z,12.23
2022-09-26T00:34:21.423Z,12.25
2022-09-26T00:35:21.419Z,12.25
2022-09-26T00:36:29.675Z,12.25
2022-09-26T00:37:22.382Z,12.25
2022-09-26T00:38:21.381Z,12.23
2022-09-26T00:39:21.368Z,12.21
2022-09-26T00:40:21.508Z,12.19
2022-09-26T00:41:21.342Z,12.16
2022-09-26T00:42:21.330Z,12.16
2022-09-26T00:43:21.309Z,12.15
2022-09-26T00:44:21.299Z,12.15
2022-09-26T00:45:21.289Z,12.15
2022-09-26T00:46:21.325Z,12.13
2022-09-26T00:47:21.270Z,12.11
2022-09-26T00:48:21.244Z,12.11
2022-09-26T00:49:21.238Z,12.11
2022-09-26T00:50:21.225Z,12.13
2022-09-26T00:51:21.222Z,12.15
2022-09-26T00:52:21.197Z,12.13
2022-09-26T00:53:21.187Z,12.13
2022-09-26T00:54:21.195Z,12.13
2022-09-26T00:55:21.170Z,12.15
2022-09-26T00:56:21.147Z,12.15
2022-09-26T00:57:21.137Z,12.13
2022-09-26T00:58:21.135Z,12.11
2022-09-26T00:59:21.103Z,12.12
2022-09-26T01:00:21.105Z,12.05
2022-09-26T01:01:21.157Z,12.04
2022-09-26T01:02:21.182Z,12.04
2022-09-26T01:03:21.056Z,12.03
2022-09-26T01:04:21.050Z,12.00
2022-09-26T01:05:21.024Z,12.00
2022-09-26T01:06:21.040Z,12.01
2022-09-26T01:07:21.006Z,11.97
2022-09-26T01:08:20.997Z,11.94
2022-09-26T01:09:20.974Z,11.94
2022-09-26T01:10:20.976Z,11.94
2022-09-26T01:11:20.945Z,11.90
2022-09-26T01:12:20.963Z,11.90
2022-09-26T01:13:20.913Z,11.93
2022-09-26T01:14:20.934Z,11.90
2022-09-26T01:15:20.898Z,11.94
2022-09-26T01:16:20.928Z,11.96
2022-09-26T01:17:20.871Z,11.96
2022-09-26T01:18:20.868Z,11.96
2022-09-26T01:19:20.861Z,11.96
2022-09-26T01:20:20.930Z,11.97
2022-09-26T01:21:20.824Z,11.96
2022-09-26T01:22:20.805Z,11.97
2022-09-26T01:23:20.791Z,11.97
2022-09-26T01:24:20.782Z,11.97
2022-09-26T01:25:20.762Z,11.97
2022-09-26T01:26:20.761Z,11.98
2022-09-26T01:27:20.750Z,11.97
2022-09-26T01:28:20.722Z,11.96
2022-09-26T01:29:20.722Z,11.93
2022-09-26T01:30:20.701Z,11.93
2022-09-26T01:31:20.739Z,11.94
2022-09-26T01:32:20.814Z,11.90
2022-09-26T01:33:20.660Z,11.90
2022-09-26T01:34:20.660Z,11.90
2022-09-26T01:35:20.682Z,11.90
2022-09-26T01:36:20.632Z,11.87
2022-09-26T01:37:20.760Z,11.87
2022-09-26T01:38:20.603Z,11.88
2022-09-26T01:39:20.589Z,11.96
2022-09-26T01:40:20.617Z,12.00
2022-09-26T01:41:20.560Z,11.97
2022-09-26T01:42:20.559Z,11.97
2022-09-26T01:43:20.540Z,11.96
2022-09-26T01:44:20.529Z,11.96
2022-09-26T01:45:20.517Z,11.94
2022-09-26T01:46:20.531Z,11.94
2022-09-26T01:47:20.489Z,11.90
2022-09-26T01:48:20.469Z,11.87
2022-09-26T01:49:20.471Z,11.87
2022-09-26T01:50:20.439Z,11.87
2022-09-26T01:51:20.442Z,11.88
2022-09-26T01:52:20.419Z,11.88
2022-09-26T01:53:20.416Z,11.90
2022-09-26T01:54:20.397Z,11.88
2022-09-26T01:55:20.402Z,11.88
2022-09-26T01:56:20.397Z,11.90
2022-09-26T01:57:20.367Z,11.93
2022-09-26T01:58:20.346Z,11.96
2022-09-26T01:59:20.325Z,11.98
2022-09-26T02:00:20.310Z,11.98
2022-09-26T02:01:20.365Z,12.00
2022-09-26T02:02:20.316Z,12.01
2022-09-26T02:03:20.287Z,12.00
2022-09-26T02:04:20.265Z,12.03
2022-09-26T02:05:20.258Z,12.03
2022-09-26T02:06:20.253Z,12.03
2022-09-26T02:07:20.224Z,12.03
2022-09-26T02:08:20.208Z,12.04
2022-09-26T02:09:20.194Z,12.04
2022-09-26T02:10:20.176Z,12.05
2022-09-26T02:11:20.176Z,12.05
2022-09-26T02:12:20.154Z,12.04
2022-09-26T02:13:20.144Z,12.07
2022-09-26T02:14:20.146Z,12.11
2022-09-26T02:15:20.123Z,12.08
2022-09-26T02:16:20.167Z,12.07
2022-09-26T02:17:20.094Z,12.07
2022-09-26T02:18:20.096Z,12.04
2022-09-26T02:19:20.073Z,12.03
2022-09-26T02:20:20.054Z,12.05
2022-09-26T02:21:20.042Z,12.08
2022-09-26T02:22:20.033Z,12.07
2022-09-26T02:23:20.027Z,12.07
2022-09-26T02:24:20.010Z,12.08
2022-09-26T02:25:20.072Z,12.08
2022-09-26T02:26:19.995Z,12.11
2022-09-26T02:27:19.960Z,12.12
2022-09-26T02:28:19.953Z,12.07
2022-09-26T02:29:19.952Z,12.08
2022-09-26T02:30:19.954Z,12.07
2022-09-26T02:31:19.999Z,12.08
2022-09-26T02:32:19.972Z,12.08
2022-09-26T02:33:19.887Z,12.07
2022-09-26T02:34:19.887Z,12.08
2022-09-26T02:35:19.880Z,12.08
2022-09-26T02:36:19.852Z,12.11
2022-09-26T02:37:19.839Z,12.08
2022-09-26T02:38:19.819Z,12.11
2022-09-26T02:39:19.835Z,12.11
2022-09-26T02:40:19.827Z,12.13
2022-09-26T02:41:19.812Z,12.15
2022-09-26T02:42:19.778Z,12.12
2022-09-26T02:43:19.750Z,12.11
2022-09-26T02:44:19.757Z,12.11
2022-09-26T02:45:19.742Z,12.11
2022-09-26T02:46:19.783Z,12.11
2022-09-26T02:47:19.719Z,12.07
2022-09-26T02:48:19.699Z,12.07
2022-09-26T02:49:19.675Z,12.08
2022-09-26T02:50:19.736Z,12.05
2022-09-26T02:51:19.646Z,12.07
2022-09-26T02:52:19.640Z,12.07
2022-09-26T02:53:19.627Z,12.04
2022-09-26T02:54:19.617Z,12.05
2022-09-26T02:55:19.605Z,12.05
2022-09-26T02:56:19.579Z,12.04
2022-09-26T02:57:20.297Z,12.05
2022-09-26T02:58:19.555Z,12.05
2022-09-26T02:59:19.548Z,12.07
2022-09-26T03:00:19.601Z,12.07
2022-09-26T03:01:19.600Z,12.07
2022-09-26T03:02:19.517Z,12.07
2022-09-26T03:03:19.503Z,12.07
2022-09-26T03:04:19.527Z,12.08
2022-09-26T03:05:19.475Z,12.11
2022-09-26T03:06:19.455Z,12.08
2022-09-26T03:07:19.447Z,12.04
2022-09-26T03:08:19.443Z,12.04
2022-09-26T03:09:19.981Z,12.03
2022-09-26T03:10:19.417Z,12.01
2022-09-26T03:11:19.394Z,12.03
2022-09-26T03:12:19.380Z,12.05
2022-09-26T03:13:19.387Z,12.05
2022-09-26T03:14:19.355Z,12.04
2022-09-26T03:15:19.353Z,12.04
2022-09-26T03:16:19.390Z,12.04
2022-09-26T03:17:19.312Z,12.03
2022-09-26T03:18:19.313Z,12.03
2022-09-26T03:19:19.290Z,12.04
2022-09-26T03:20:19.273Z,12.04
2022-09-26T03:21:19.261Z,12.01
2022-09-26T03:22:19.562Z,11.98
2022-09-26T03:23:19.256Z,11.94
2022-09-26T03:24:19.225Z,11.94
2022-09-26T03:25:19.210Z,11.97
2022-09-26T03:26:19.202Z,12.00
2022-09-26T03:27:19.184Z,12.01
2022-09-26T03:28:19.190Z,11.98
2022-09-26T03:29:19.176Z,11.96
2022-09-26T03:30:19.146Z,11.97
2022-09-26T03:31:19.196Z,11.96
2022-09-26T03:32:19.124Z,11.97
2022-09-26T03:33:19.117Z,11.97
2022-09-26T03:34:19.109Z,11.98
2022-09-26T03:35:19.075Z,11.98
2022-09-26T03:36:19.067Z,11.97
2022-09-26T03:37:19.052Z,11.97
2022-09-26T03:38:19.038Z,11.93
2022-09-26T03:39:19.034Z,11.93
2022-09-26T03:40:19.053Z,11.88
2022-09-26T03:41:19.028Z,11.88
2022-09-26T03:42:18.981Z,11.93
2022-09-26T03:43:18.967Z,11.93
2022-09-26T03:44:18.987Z,11.94
2022-09-26T03:45:18.946Z,11.96
2022-09-26T03:46:19.045Z,11.97
2022-09-26T03:47:18.928Z,11.94
2022-09-26T03:48:18.908Z,11.93
2022-09-26T03:49:19.091Z,11.96
2022-09-26T03:50:18.886Z,11.96
2022-09-26T03:51:18.869Z,11.96
2022-09-26T03:52:18.868Z,11.96
2022-09-26T03:53:18.849Z,11.97
2022-09-26T03:54:18.847Z,11.97
2022-09-26T03:55:18.817Z,11.97
2022-09-26T03:56:18.814Z,11.97
2022-09-26T03:57:18.805Z,11.97
2022-09-26T03:58:18.791Z,11.94
2022-09-26T03:59:18.796Z,11.93
2022-09-26T04:00:18.804Z,11.93
2022-09-26T04:01:18.789Z,11.93
2022-09-26T04:02:18.840Z,11.90
2022-09-26T04:03:18.805Z,11.93
2022-09-26T04:04:18.741Z,11.93
2022-09-26T04:05:18.753Z,11.93
2022-09-26T04:06:18.695Z,11.90
2022-09-26T04:07:18.695Z,11.93
2022-09-26T04:08:18.675Z,11.94
2022-09-26T04:09:19.225Z,11.94
2022-09-26T04:10:18.635Z,11.88
2022-09-26T04:11:18.653Z,11.87
2022-09-26T04:12:18.628Z,11.87
2022-09-26T04:13:46.583Z,11.82
2022-09-26T04:14:19.593Z,11.82
2022-09-26T04:15:18.564Z,11.81
2022-09-26T04:16:18.596Z,11.79
2022-09-26T04:17:18.543Z,11.79
2022-09-26T04:18:18.526Z,11.78
2022-09-26T04:19:18.518Z,11.75
2022-09-26T04:20:18.498Z,11.74
2022-09-26T04:21:18.483Z,11.75
2022-09-26T04:22:18.472Z,11.74
2022-09-26T04:23:18.453Z,11.74
2022-09-26T04:24:18.451Z,11.70
2022-09-26T04:25:18.441Z,11.69
2022-09-26T04:26:22.726Z,11.67
2022-09-26T04:27:19.419Z,11.64
2022-09-26T04:28:18.394Z,11.62
2022-09-26T04:29:18.381Z,11.60
2022-09-26T04:30:18.385Z,11.57
2022-09-26T04:31:18.504Z,11.54
2022-09-26T04:32:18.360Z,11.51
2022-09-26T04:33:18.341Z,11.51
2022-09-26T04:34:19.654Z,11.49
2022-09-26T04:35:18.330Z,11.49
2022-09-26T04:36:18.313Z,11.46
2022-09-26T04:37:18.318Z,11.46
2022-09-26T04:38:18.272Z,11.44
2022-09-26T04:39:18.260Z,11.42
2022-09-26T04:40:18.363Z,11.41
2022-09-26T04:41:18.231Z,11.41
2022-09-26T04:42:18.209Z,11.38
2022-09-26T04:43:18.199Z,11.39
2022-09-26T04:44:18.178Z,11.39
2022-09-26T04:45:18.241Z,11.39
2022-09-26T04:46:21.814Z,11.38
2022-09-26T04:47:18.185Z,11.38
2022-09-26T04:48:18.148Z,11.39
2022-09-26T04:49:18.343Z,11.38
2022-09-26T04:50:18.108Z,11.38
2022-09-26T04:51:18.108Z,11.39
2022-09-26T04:52:18.085Z,11.42
2022-09-26T04:53:18.067Z,11.39
2022-09-26T04:54:18.055Z,11.41
2022-09-26T04:55:18.092Z,11.38
2022-09-26T04:56:18.035Z,11.33
2022-09-26T04:57:19.918Z,11.33
2022-09-26T04:58:18.057Z,11.33
2022-09-26T04:59:17.997Z,11.33
2022-09-26T05:00:17.991Z,11.31
2022-09-26T05:01:18.074Z,11.31
2022-09-26T05:02:17.990Z,11.31
2022-09-26T05:03:17.949Z,11.28
2022-09-26T05:04:18.007Z,11.33
2022-09-26T05:05:17.980Z,11.45
2022-09-26T05:06:24.913Z,11.48
2022-09-26T05:07:17.909Z,11.51
2022-09-26T05:08:17.898Z,11.51
2022-09-26T05:09:17.876Z,11.48
2022-09-26T05:10:17.999Z,11.48
2022-09-26T05:11:17.845Z,11.45
2022-09-26T05:12:17.827Z,11.44
2022-09-26T05:13:17.818Z,11.41
2022-09-26T05:14:17.795Z,11.38
2022-09-26T05:15:17.818Z,11.36
2022-09-26T05:16:17.896Z,11.35
2022-09-26T05:17:17.778Z,11.33
2022-09-26T05:18:17.758Z,11.33
2022-09-26T05:19:17.797Z,11.33
2022-09-26T05:20:17.746Z,11.28
2022-09-26T05:21:17.720Z,11.30
2022-09-26T05:22:17.710Z,11.28
2022-09-26T05:23:17.826Z,11.28
2022-09-26T05:24:17.663Z,11.30
2022-09-26T05:25:17.677Z,11.26
2022-09-26T05:26:17.707Z,11.24
2022-09-26T05:27:17.632Z,11.21
2022-09-26T05:28:17.618Z,11.23
2022-09-26T05:29:17.634Z,11.24
2022-09-26T05:30:17.635Z,11.23
2022-09-26T05:31:17.635Z,11.26
2022-09-26T05:32:17.578Z,11.31
2022-09-26T05:33:17.623Z,11.31
2022-09-26T05:34:20.098Z,11.33
2022-09-26T05:35:17.558Z,11.35
2022-09-26T05:36:17.514Z,11.36
2022-09-26T05:37:17.496Z,11.38
2022-09-26T05:38:17.490Z,11.39
2022-09-26T05:39:17.469Z,11.38
2022-09-26T05:40:17.547Z,11.39
2022-09-26T05:41:17.443Z,11.42
2022-09-26T05:42:17.440Z,11.44
2022-09-26T05:43:17.422Z,11.48
2022-09-26T05:44:17.440Z,11.48
2022-09-26T05:45:17.412Z,11.48
2022-09-26T05:46:17.469Z,11.53
2022-09-26T05:47:17.404Z,11.64
2022-09-26T05:48:17.396Z,11.81
2022-09-26T05:49:17.394Z,12.03
2022-09-26T05:50:17.377Z,12.12
2022-09-26T05:51:17.422Z,12.18
2022-09-26T05:52:17.328Z,12.29
2022-09-26T05:53:17.323Z,12.29
2022-09-26T05:54:17.331Z,12.23
2022-09-26T05:55:17.309Z,12.12
2022-09-26T05:56:19.350Z,12.11
2022-09-26T05:57:17.302Z,12.11
2022-09-26T05:58:17.263Z,12.30
2022-09-26T05:59:17.230Z,12.29
2022-09-26T06:00:17.316Z,12.29
2022-09-26T06:01:17.336Z,12.22
2022-09-26T06:02:20.693Z,12.22
2022-09-26T06:03:17.160Z,12.15
2022-09-26T06:04:17.163Z,12.05
2022-09-26T06:05:17.130Z,11.98
2022-09-26T06:06:17.132Z,11.94
2022-09-26T06:07:17.119Z,11.90
2022-09-26T06:08:17.110Z,11.84
2022-09-26T06:09:17.328Z,11.81
2022-09-26T06:10:17.066Z,11.81
2022-09-26T06:11:17.067Z,11.82
2022-09-26T06:12:17.094Z,11.79
2022-09-26T06:13:17.039Z,11.79
2022-09-26T06:14:17.027Z,11.79
2022-09-26T06:15:17.006Z,11.81
2022-09-26T06:16:17.036Z,11.79
2022-09-26T06:17:16.974Z,11.79
2022-09-26T06:18:16.963Z,11.84
2022-09-26T06:19:22.000Z,11.85
2022-09-26T06:20:17.943Z,11.87
2022-09-26T06:21:16.948Z,11.90
2022-09-26T06:22:16.903Z,11.93
2022-09-26T06:23:16.901Z,11.94
2022-09-26T06:24:16.882Z,11.97
2022-09-26T06:25:16.876Z,11.98
2022-09-26T06:26:16.863Z,12.00
2022-09-26T06:27:16.860Z,12.04
2022-09-26T06:28:16.852Z,12.05
2022-09-26T06:29:16.805Z,12.13
2022-09-26T06:30:16.828Z,12.15
2022-09-26T06:31:16.992Z,12.19
2022-09-26T06:32:16.796Z,12.23
2022-09-26T06:33:16.768Z,12.29
2022-09-26T06:34:16.772Z,12.29
2022-09-26T06:35:16.744Z,12.31
2022-09-26T06:36:16.747Z,12.34
2022-09-26T06:37:16.725Z,12.33
2022-09-26T06:38:16.751Z,12.33
2022-09-26T06:39:16.809Z,12.36
2022-09-26T06:40:16.819Z,12.38
2022-09-26T06:41:16.787Z,12.40
2022-09-26T06:42:16.670Z,12.46
2022-09-26T06:43:16.623Z,12.51
2022-09-26T06:44:16.664Z,12.52
2022-09-26T06:45:16.638Z,12.56
2022-09-26T06:46:16.704Z,12.59
2022-09-26T06:47:16.765Z,12.58
2022-09-26T06:48:18.958Z,12.61
2022-09-26T06:49:17.577Z,12.61
2022-09-26T06:50:16.649Z,12.66
2022-09-26T06:51:16.545Z,12.70
2022-09-26T06:52:16.546Z,12.71
2022-09-26T06:53:16.531Z,12.73
2022-09-26T06:54:16.518Z,12.73
2022-09-26T06:55:16.485Z,12.77
2022-09-26T06:56:16.487Z,12.79
2022-09-26T06:57:16.508Z,12.84
2022-09-26T06:58:16.452Z,12.81
2022-09-26T06:59:16.635Z,12.85
2022-09-26T07:00:16.451Z,12.87
2022-09-26T07:01:16.741Z,12.88
2022-09-26T07:02:16.455Z,12.91
2022-09-26T07:03:16.454Z,12.94
2022-09-26T07:04:16.392Z,12.96
2022-09-26T07:05:16.399Z,13.01
2022-09-26T07:06:16.394Z,13.03
2022-09-26T07:07:16.356Z,13.07
2022-09-26T07:08:16.320Z,13.09
2022-09-26T07:09:16.781Z,13.10
2022-09-26T07:10:16.292Z,13.14
2022-09-26T07:11:35.126Z,13.16
2022-09-26T07:12:17.266Z,13.21
2022-09-26T07:13:16.239Z,13.22
2022-09-26T07:14:16.261Z,13.22
2022-09-26T07:15:16.278Z,13.25
2022-09-26T07:16:16.265Z,13.24
2022-09-26T07:17:16.273Z,13.27
2022-09-26T07:18:16.242Z,13.28
2022-09-26T07:19:16.217Z,13.25
2022-09-26T07:20:16.274Z,13.28
2022-09-26T07:21:16.162Z,13.29
2022-09-26T07:22:16.157Z,13.31
2022-09-26T07:23:16.156Z,13.36
2022-09-26T07:24:16.153Z,13.39
2022-09-26T07:25:16.105Z,13.41
2022-09-26T07:26:16.132Z,13.43
2022-09-26T07:27:16.095Z,13.47
2022-09-26T07:28:16.146Z,13.47
2022-09-26T07:29:16.270Z,13.50
2022-09-26T07:30:16.096Z,13.51
2022-09-26T07:31:16.071Z,13.54
2022-09-26T07:32:16.048Z,13.55
2022-09-26T07:33:16.056Z,13.59
2022-09-26T07:34:18.569Z,13.61
2022-09-26T07:35:15.945Z,13.57
2022-09-26T07:36:16.002Z,13.57
2022-09-26T07:37:15.963Z,13.61
2022-09-26T07:38:15.954Z,13.63
2022-09-26T07:39:16.102Z,13.68
2022-09-26T07:40:15.923Z,13.72
2022-09-26T07:41:15.881Z,13.76
2022-09-26T07:42:15.875Z,13.73
2022-09-26T07:43:19.971Z,13.73
2022-09-26T07:45:28.012Z,13.81
2022-09-26T07:46:16.864Z,13.84
2022-09-26T07:47:16.232Z,13.90
2022-09-26T07:48:15.810Z,13.94
2022-09-26T07:49:16.163Z,14.01
2022-09-26T07:50:15.759Z,14.05
2022-09-26T07:51:15.753Z,14.09
2022-09-26T07:52:16.310Z,14.12
2022-09-26T07:53:15.762Z,14.12
2022-09-26T07:54:15.853Z,14.16
2022-09-26T07:55:15.697Z,14.16
2022-09-26T07:56:15.712Z,14.16
2022-09-26T07:57:15.675Z,14.20
2022-09-26T07:58:15.660Z,14.21
2022-09-26T07:59:15.639Z,14.19
2022-09-26T08:00:15.625Z,14.17
2022-09-26T08:01:15.668Z,14.13
2022-09-26T08:02:15.869Z,14.17
2022-09-26T08:03:15.711Z,14.13
2022-09-26T08:04:16.757Z,14.13
2022-09-26T08:05:16.444Z,14.17
2022-09-26T08:06:15.547Z,14.19
2022-09-26T08:07:15.587Z,14.20
2022-09-26T08:08:15.541Z,14.21
2022-09-26T08:09:15.703Z,14.24
2022-09-26T08:10:15.520Z,14.26
2022-09-26T08:11:15.485Z,14.21
2022-09-26T08:12:15.486Z,14.20
2022-09-26T08:13:15.521Z,14.21
2022-09-26T08:14:15.661Z,14.24
2022-09-26T08:15:15.454Z,14.26
2022-09-26T08:16:15.457Z,14.27
2022-09-26T08:17:15.427Z,14.29
2022-09-26T08:18:15.398Z,14.26
2022-09-26T08:19:15.633Z,14.27
2022-09-26T08:20:15.383Z,14.26
2022-09-26T08:21:15.374Z,14.27
2022-09-26T08:22:15.385Z,14.30
2022-09-26T08:23:15.370Z,14.34
2022-09-26T08:24:15.467Z,14.31
2022-09-26T08:25:15.340Z,14.31
2022-09-26T08:26:15.299Z,14.36
2022-09-26T08:27:15.370Z,14.36
2022-09-26T08:28:15.274Z,14.38
2022-09-26T08:29:15.269Z,14.39
2022-09-26T08:30:15.259Z,14.46
2022-09-26T08:31:15.280Z,14.53
2022-09-26T08:32:15.227Z,14.63
2022-09-26T08:33:15.205Z,14.69
2022-09-26T08:34:15.333Z,14.75
2022-09-26T08:35:15.266Z,14.80
2022-09-26T08:36:15.174Z,14.80
2022-09-26T08:37:15.179Z,14.86
2022-09-26T08:38:15.146Z,14.90
2022-09-26T08:39:15.313Z,14.90
2022-09-26T08:40:15.162Z,14.87
2022-09-26T08:41:15.114Z,14.94
2022-09-26T08:42:15.092Z,14.97
2022-09-26T08:43:15.063Z,14.95
2022-09-26T08:44:15.138Z,14.94
2022-09-26T08:45:15.053Z,14.97
2022-09-26T08:46:15.057Z,15.00
2022-09-26T08:47:15.043Z,15.07
2022-09-26T08:48:15.016Z,15.13
2022-09-26T08:49:15.031Z,15.18
2022-09-26T08:50:15.017Z,15.20
2022-09-26T08:51:14.978Z,15.28
2022-09-26T08:52:14.977Z,15.34
2022-09-26T08:53:14.972Z,15.40
2022-09-26T08:54:15.118Z,15.41
2022-09-26T08:55:14.972Z,15.44
2022-09-26T08:56:14.916Z,15.51
2022-09-26T08:57:14.903Z,15.58
2022-09-26T08:58:14.911Z,15.66
2022-09-26T08:59:14.887Z,15.73
2022-09-26T09:00:14.857Z,15.74
2022-09-26T09:01:14.901Z,15.77
2022-09-26T09:02:14.986Z,15.84
2022-09-26T09:03:14.968Z,15.88
2022-09-26T09:04:14.852Z,15.92
2022-09-26T09:05:14.889Z,15.92
2022-09-26T09:06:14.779Z,15.88
2022-09-26T09:07:14.794Z,15.88
2022-09-26T09:08:14.742Z,15.88
2022-09-26T09:09:14.744Z,15.88
2022-09-26T09:10:14.724Z,15.84
2022-09-26T09:11:14.724Z,15.73
2022-09-26T09:12:14.700Z,15.74
2022-09-26T09:13:15.388Z,15.77
2022-09-26T09:14:14.873Z,15.81
2022-09-26T09:15:25.417Z,15.86
2022-09-26T09:16:15.694Z,15.85
2022-09-26T09:17:14.643Z,15.85
2022-09-26T09:18:14.633Z,15.88
2022-09-26T09:19:14.617Z,15.85
2022-09-26T09:20:14.597Z,15.76
2022-09-26T09:21:14.587Z,15.71
2022-09-26T09:22:14.630Z,15.64
2022-09-26T09:23:14.653Z,15.68
2022-09-26T09:24:14.646Z,15.71
2022-09-26T09:25:14.538Z,15.71
2022-09-26T09:28:15.523Z,15.81
2022-09-26T09:29:19.269Z,15.88
2022-09-26T09:30:17.445Z,15.91
2022-09-26T09:31:14.501Z,15.96
2022-09-26T09:32:14.432Z,15.96
2022-09-26T09:33:14.695Z,16.03
2022-09-26T09:34:14.955Z,16.06
2022-09-26T09:35:14.408Z,16.06
2022-09-26T09:36:14.396Z,16.08
2022-09-26T09:37:14.374Z,16.11
2022-09-26T09:38:14.353Z,16.14
2022-09-26T09:39:14.366Z,16.17
2022-09-26T09:40:14.395Z,16.16
2022-09-26T09:41:14.337Z,16.16
2022-09-26T09:42:14.328Z,16.17
2022-09-26T09:43:14.288Z,16.13
2022-09-26T09:44:14.516Z,16.13
2022-09-26T09:45:14.257Z,16.11
2022-09-26T09:46:14.328Z,16.13
2022-09-26T09:47:14.320Z,16.18
2022-09-26T09:48:14.231Z,16.26
2022-09-26T09:49:14.216Z,16.22
2022-09-26T09:50:14.190Z,16.18
2022-09-26T09:51:14.206Z,16.22
2022-09-26T09:52:14.223Z,16.26
2022-09-26T09:53:14.148Z,16.27
2022-09-26T09:54:14.236Z,16.33
2022-09-26T09:55:14.118Z,16.32
2022-09-26T09:56:14.130Z,16.33
2022-09-26T09:57:14.161Z,16.27
2022-09-26T09:58:14.136Z,16.27
2022-09-26T09:59:14.086Z,16.34
2022-09-26T10:00:14.067Z,16.42
2022-09-26T10:01:14.069Z,16.47
2022-09-26T10:02:14.057Z,16.48
2022-09-26T10:03:14.096Z,16.54
2022-09-26T10:04:14.228Z,16.60
2022-09-26T10:05:14.018Z,16.63
2022-09-26T10:06:45.669Z,16.55
2022-09-26T10:07:15.008Z,16.59
2022-09-26T10:08:13.978Z,16.70
2022-09-26T10:09:39.096Z,16.84
2022-09-26T10:10:15.046Z,16.90
2022-09-26T10:11:13.940Z,16.99
2022-09-26T10:12:13.947Z,17.07
2022-09-26T10:13:14.401Z,17.07
2022-09-26T10:14:14.140Z,17.03
2022-09-26T10:15:13.875Z,16.96
2022-09-26T10:16:13.934Z,16.91
2022-09-26T10:17:13.895Z,16.88
2022-09-26T10:18:29.266Z,16.87
2022-09-26T10:19:15.815Z,16.87
2022-09-26T10:20:13.800Z,16.90
2022-09-26T10:21:13.792Z,16.90
2022-09-26T10:22:13.797Z,16.88
2022-09-26T10:23:13.795Z,16.87
2022-09-26T10:24:13.785Z,16.87
2022-09-26T10:25:13.736Z,16.85
2022-09-26T10:26:13.719Z,16.73
2022-09-26T10:27:13.712Z,16.69
2022-09-26T10:28:13.713Z,16.67
2022-09-26T10:29:13.730Z,16.63
2022-09-26T10:30:13.736Z,16.60
2022-09-26T10:31:13.700Z,16.54
2022-09-26T10:32:13.656Z,16.54
2022-09-26T10:33:13.633Z,16.52
2022-09-26T10:34:13.749Z,16.57
2022-09-26T10:35:17.474Z,16.63
2022-09-26T10:36:14.594Z,16.66
2022-09-26T10:37:13.622Z,16.73
2022-09-26T10:38:13.597Z,16.75
2022-09-26T10:39:13.595Z,16.69
2022-09-26T10:40:13.630Z,16.60
2022-09-26T10:41:13.548Z,16.57
2022-09-26T10:42:13.525Z,16.65
2022-09-26T10:43:13.599Z,16.70
2022-09-26T10:44:13.575Z,16.75
2022-09-26T10:45:13.508Z,16.78
2022-09-26T10:46:13.586Z,16.75
2022-09-26T10:47:13.624Z,16.75
2022-09-26T10:48:13.445Z,16.70
2022-09-26T10:49:13.452Z,16.66
2022-09-26T10:50:13.602Z,16.65
2022-09-26T10:51:13.424Z,16.66
2022-09-26T10:52:18.221Z,16.69
2022-09-26T10:53:14.388Z,16.72
2022-09-26T10:54:13.443Z,16.70
2022-09-26T10:55:13.404Z,16.67
2022-09-26T10:56:13.379Z,16.66
2022-09-26T10:57:13.345Z,16.69
2022-09-26T10:58:14.156Z,16.72
2022-09-26T10:59:13.539Z,16.72
2022-09-26T11:00:13.288Z,16.66
2022-09-26T11:01:13.346Z,16.65
2022-09-26T11:02:13.368Z,16.59
2022-09-26T11:03:13.323Z,16.52
2022-09-26T11:04:13.584Z,16.45
2022-09-26T11:05:13.223Z,16.42
2022-09-26T11:06:13.222Z,16.40
2022-09-26T11:07:13.231Z,16.36
2022-09-26T11:08:13.192Z,16.33
2022-09-26T11:09:13.212Z,16.36
2022-09-26T11:10:13.269Z,16.36
2022-09-26T11:11:13.144Z,16.34
2022-09-26T11:12:13.199Z,16.36
2022-09-26T11:13:13.172Z,16.41
2022-09-26T11:14:13.188Z,16.47
2022-09-26T11:15:13.133Z,16.54
2022-09-26T11:16:13.373Z,16.60
2022-09-26T11:17:13.091Z,16.62
2022-09-26T11:18:13.117Z,16.60
2022-09-26T11:19:13.085Z,16.63
2022-09-26T11:20:13.107Z,16.67
2022-09-26T11:21:27.865Z,16.69
2022-09-26T11:22:14.007Z,16.73
2022-09-26T11:23:13.004Z,16.78
2022-09-26T11:24:13.041Z,16.80
2022-09-26T11:25:35.772Z,16.77
2022-09-26T11:27:23.518Z,16.81
2022-09-26T11:28:44.576Z,16.82
2022-09-26T11:30:34.417Z,16.88
2022-09-26T11:31:59.478Z,16.96
2022-09-26T11:32:56.060Z,17.00
2022-09-26T11:33:55.070Z,17.06
2022-09-26T11:35:51.463Z,17.12
2022-09-26T11:36:44.550Z,17.14
2022-09-26T11:37:44.562Z,17.18
2022-09-26T11:38:44.635Z,17.24
2022-09-26T11:39:44.547Z,17.24
2022-09-26T11:40:44.585Z,17.24
2022-09-26T11:41:44.488Z,17.24
2022-09-26T11:42:44.498Z,17.21
2022-09-26T11:43:44.489Z,17.17
2022-09-26T11:44:44.452Z,17.18
2022-09-26T11:45:47.435Z,17.22
2022-09-26T11:46:44.515Z,17.28
2022-09-26T11:47:44.421Z,17.36
2022-09-26T11:48:44.411Z,17.38
2022-09-26T11:49:44.392Z,17.36
2022-09-26T11:50:44.415Z,17.39
2022-09-26T11:51:44.372Z,17.39
2022-09-26T11:52:48.857Z,17.35
2022-09-26T11:53:45.382Z,17.30
2022-09-26T11:54:44.361Z,17.35
2022-09-26T11:55:44.311Z,17.32
2022-09-26T11:56:44.320Z,17.28
2022-09-26T11:57:44.330Z,17.21
2022-09-26T11:58:44.362Z,17.15
2022-09-26T11:59:44.282Z,17.07
2022-09-26T12:00:44.242Z,17.06
2022-09-26T12:01:44.257Z,17.06
2022-09-26T12:02:44.401Z,17.09
2022-09-26T12:03:44.318Z,17.12
2022-09-26T12:04:44.222Z,17.09
2022-09-26T12:05:44.259Z,17.00
2022-09-26T12:06:44.179Z,16.96
2022-09-26T12:07:44.167Z,16.95
2022-09-26T12:08:44.185Z,16.91
2022-09-26T12:09:44.158Z,16.90
2022-09-26T12:10:44.145Z,16.90
2022-09-26T12:11:44.139Z,16.90
2022-09-26T12:12:44.117Z,16.99
2022-09-26T12:13:44.091Z,17.12
2022-09-26T12:14:44.599Z,17.27
2022-09-26T12:15:44.082Z,17.42
2022-09-26T12:16:44.050Z,17.33
2022-09-26T12:17:44.133Z,17.35
2022-09-26T12:18:44.075Z,17.43
2022-09-26T12:19:45.268Z,17.55
2022-09-26T12:20:44.007Z,17.65
2022-09-26T12:21:44.003Z,17.74
2022-09-26T12:22:43.978Z,17.76
2022-09-26T12:23:44.048Z,17.70
2022-09-26T12:24:43.959Z,17.62
2022-09-26T12:25:43.960Z,17.54
2022-09-26T12:26:43.952Z,17.53
2022-09-26T12:27:43.937Z,17.46
2022-09-26T12:28:43.917Z,17.36
2022-09-26T12:29:43.904Z,17.36
2022-09-26T12:30:43.918Z,17.35
2022-09-26T12:31:43.934Z,17.35
2022-09-26T12:32:43.866Z,17.35
2022-09-26T12:33:43.850Z,17.33
2022-09-26T12:34:43.825Z,17.30
2022-09-26T12:35:43.817Z,17.21
2022-09-26T12:36:43.799Z,17.10
2022-09-26T12:37:43.794Z,17.10
2022-09-26T12:38:43.786Z,17.06
2022-09-26T12:39:43.749Z,17.03
2022-09-26T12:40:43.853Z,17.00
2022-09-26T12:41:43.735Z,17.03
2022-09-26T12:42:43.724Z,17.06
2022-09-26T12:43:43.713Z,17.05
2022-09-26T12:44:44.907Z,17.05
2022-09-26T12:45:43.676Z,17.07
2022-09-26T12:46:43.772Z,17.10
2022-09-26T12:47:43.667Z,17.14
2022-09-26T12:48:43.688Z,17.18
2022-09-26T12:49:43.731Z,17.21
2022-09-26T12:50:43.615Z,17.24
2022-09-26T12:51:43.586Z,17.28
2022-09-26T12:52:43.638Z,17.36
2022-09-26T12:53:43.596Z,17.39
2022-09-26T12:54:43.571Z,17.42
2022-09-26T12:55:43.551Z,17.47
2022-09-26T12:56:43.533Z,17.46
2022-09-26T12:57:43.604Z,17.42
2022-09-26T12:58:43.523Z,17.36